Données. Loja

Actualisé: mardi, 31 mars 2015 17:32 (heure officielle)
Ind. climatologique: 5582A -  Altitude (m): 594
Latitude37° 9' 40'' N - Longitude4° 9' 10'' O -  PositionVoir localisation
MunicipioLoja (Granada) - Ver predicción
Registros - de
Fecha y hora oficial

 

Temp. (°C)

 

Vit. vent (km/h)

 

Dir. vent

 

Rafale (km/h)

 

Dir. rafale

 

Prec. (mm)

 

Pression (hPa)

 

Tend. (hPa)

 

Humidité (%)

 

31/03/2015 17:00 29.8 5 9-Nord-OuestNord-Ouest 22 9-Nord-OuestNord-Ouest 0.0 953.8 -2.6 21
31/03/2015 16:00 28.9 6 9-Nord-OuestNord-Ouest 14 9-Nord-OuestNord-Ouest 0.0 954.5 -2.6 21
31/03/2015 15:00 28.3 4 3-Nord-EstNord-Est 9 2-NordNord 0.0 955.4 -2.1 24
31/03/2015 14:00 26.5 3 3-Nord-EstNord-Est 13 3-Nord-EstNord-Est 0.0 956.4 -1.2 31
31/03/2015 13:00 23.2 6 3-Nord-EstNord-Est 19 4-EstEst 0.0 957.1 -0.4 40
31/03/2015 12:00 20.4 8 3-Nord-EstNord-Est 20 2-NordNord 0.0 957.5 0.0 46
31/03/2015 11:00 17.7 7 3-Nord-EstNord-Est 26 2-NordNord 0.0 957.6 0.5 50
31/03/2015 10:00 13.9 9 3-Nord-EstNord-Est 28 2-NordNord 0.0 957.5 0.9 56
31/03/2015 09:00 14.4 9 4-EstEst 27 4-EstEst 0.0 957.5 1.3 55
31/03/2015 08:00 12.6 3 3-Nord-EstNord-Est 11 2-NordNord 0.0 957.1 0.6 59
31/03/2015 07:00 13.2 4 3-Nord-EstNord-Est 27 4-EstEst 0.0 956.6 -0.3 56
31/03/2015 06:00 14.7 6 4-EstEst 21 4-EstEst 0.0 956.2 -1.1 53
31/03/2015 05:00 14.9 4 3-Nord-EstNord-Est 12 4-EstEst 0.0 956.5 -1.1 54
31/03/2015 04:00 14.5 3 4-EstEst 12 5-Sud-EstSud-Est 0.0 956.9 -0.7 51
31/03/2015 03:00 15.7 0 1-CalmeCalme 6 6-SudSud 0.0 957.3 -0.1 48
31/03/2015 02:00 17.2 0 1-CalmeCalme 7 8-OuestOuest 0.0 957.6 0.4 44
31/03/2015 01:00 16.9 6 5-Sud-EstSud-Est 11 9-Nord-OuestNord-Ouest 0.0 957.6 0.6 44
31/03/2015 00:00 17.9 7 9-Nord-OuestNord-Ouest 13 8-OuestOuest 0.0 957.4 1.0 38
30/03/2015 23:00 19.4 5 8-OuestOuest 19 8-OuestOuest 0.0 957.2 1.1 32
30/03/2015 22:00 22.4 7 8-OuestOuest 19 8-OuestOuest 0.0 957.0 1.1 27
30/03/2015 21:00 22.5 8 8-OuestOuest 21 8-OuestOuest 0.0 956.4 1.0 25
30/03/2015 20:00 24.1 9 9-Nord-OuestNord-Ouest 22 9-Nord-OuestNord-Ouest 0.0 956.1 0.3 22
30/03/2015 19:00 25.4 9 2-NordNord 24 2-NordNord 0.0 955.9 -0.6 21
30/03/2015 18:00 26.5 7 9-Nord-OuestNord-Ouest 21 9-Nord-OuestNord-Ouest 0.0 955.4 -1.5 22
First Page First Page First Page Last Page
Lineas por página
Página   de  
Partager:  
En esta página podrá acceder, en forma gráfica y en tabla, a las observaciones horarias de las últimas 24 horas, así como a los valores extremos y acumulados desde las 00 horas del día hasta la hora de actualización indicada, obtenidos en la red de estaciones de AEMET. También podrá acceder a los resúmenes diarios de estas estaciones en los últimos 7 días.

En el mapa aparecen estaciones con valor númerico y otras representadas por un punto. En las primeras, al pasar el ratón, aparece un desplegable con la información completa de la estación. Las estaciones representadas por un punto son estaciones de la red climatológica, con transmisión de datos superior a la hora, por lo que al seleccionarlas pueden no aparecer los últimos datos.

Los datos presentados han sido únicamente sometidos a controles automáticos de calidad en tiempo real, por lo que no puede garantizarse la ausencia de errores.
Toute utilisation et reproduction de l'information est autorisé sous réserve de mentionner AEMETen tant qu'auteur de celle-ci